createdAt,value
2022-10-06T00:02:25.139Z,10.80
2022-10-06T00:04:52.081Z,11.20
2022-10-06T00:07:18.952Z,10.90
2022-10-06T00:09:45.777Z,10.90
2022-10-06T00:12:12.661Z,11.20
2022-10-06T00:14:39.530Z,10.80
2022-10-06T00:17:06.381Z,11.10
2022-10-06T00:19:33.340Z,10.80
2022-10-06T00:22:00.176Z,10.80
2022-10-06T00:24:27.367Z,11.20
2022-10-06T00:26:54.294Z,11.30
2022-10-06T00:29:21.851Z,10.80
2022-10-06T00:31:48.729Z,10.70
2022-10-06T00:34:15.583Z,11.90
2022-10-06T00:36:42.455Z,10.70
2022-10-06T00:39:09.428Z,11.10
2022-10-06T00:41:36.274Z,11.60
2022-10-06T00:44:03.087Z,10.70
2022-10-06T00:46:46.050Z,10.70
2022-10-06T00:49:20.829Z,10.60
2022-10-06T00:52:06.654Z,10.60
2022-10-06T00:54:34.185Z,10.80
2022-10-06T00:57:01.127Z,10.60
2022-10-06T00:59:27.947Z,10.50
2022-10-06T01:02:00.241Z,10.60
2022-10-06T01:04:27.166Z,10.60
2022-10-06T01:06:55.400Z,10.60
2022-10-06T01:09:22.318Z,11.00
2022-10-06T01:11:50.180Z,10.60
2022-10-06T01:14:18.222Z,10.90
2022-10-06T01:16:48.709Z,13.00
2022-10-06T01:19:26.592Z,13.00
2022-10-06T01:21:53.506Z,10.60
2022-10-06T01:24:20.403Z,10.60
2022-10-06T01:26:48.472Z,10.60
2022-10-06T01:29:15.342Z,10.50
2022-10-06T01:31:42.250Z,11.30
2022-10-06T01:34:09.918Z,10.60
2022-10-06T01:36:40.268Z,10.60
2022-10-06T01:39:07.326Z,10.60
2022-10-06T01:41:34.491Z,11.20
2022-10-06T01:44:05.248Z,10.60
2022-10-06T01:46:32.221Z,12.20
2022-10-06T01:48:59.147Z,10.80
2022-10-06T01:51:26.187Z,10.50
2022-10-06T01:53:53.016Z,11.40
2022-10-06T01:56:21.938Z,10.60
2022-10-06T01:58:48.922Z,10.60
2022-10-06T02:01:16.005Z,11.10
2022-10-06T02:03:42.832Z,10.80
2022-10-06T02:06:09.934Z,10.60
2022-10-06T02:08:37.000Z,10.90
2022-10-06T02:11:07.066Z,10.60
2022-10-06T02:13:33.991Z,10.60
2022-10-06T02:16:00.823Z,10.50
2022-10-06T02:18:28.351Z,11.20
2022-10-06T02:20:55.535Z,10.60
2022-10-06T02:23:22.362Z,10.90
2022-10-06T02:25:49.527Z,10.60
2022-10-06T02:28:17.548Z,10.90
2022-10-06T02:30:45.404Z,11.00
2022-10-06T02:33:12.348Z,10.60
2022-10-06T02:35:39.293Z,10.90
2022-10-06T02:38:06.195Z,11.20
2022-10-06T02:40:33.032Z,11.30
2022-10-06T02:42:59.888Z,10.70
2022-10-06T02:45:27.886Z,11.00
2022-10-06T02:47:55.310Z,10.70
2022-10-06T02:50:22.218Z,11.10
2022-10-06T02:52:49.044Z,10.70
2022-10-06T02:55:15.949Z,10.70
2022-10-06T02:57:42.838Z,10.70
2022-10-06T03:00:11.053Z,9.50
2022-10-06T03:02:38.175Z,10.70
2022-10-06T03:05:05.450Z,10.70
2022-10-06T03:07:33.574Z,10.70
2022-10-06T03:10:00.384Z,10.80
2022-10-06T03:12:27.896Z,10.80
2022-10-06T03:14:54.828Z,10.70
2022-10-06T03:17:22.176Z,12.00
2022-10-06T03:19:55.981Z,10.70
2022-10-06T03:22:23.218Z,11.50
2022-10-06T03:24:53.274Z,11.40
2022-10-06T03:27:21.311Z,10.70
2022-10-06T03:29:48.981Z,10.70
2022-10-06T03:32:16.176Z,11.50
2022-10-06T03:34:43.797Z,10.80
2022-10-06T03:37:13.601Z,11.50
2022-10-06T03:39:40.558Z,10.80
2022-10-06T03:42:07.453Z,11.40
2022-10-06T03:44:35.118Z,10.80
2022-10-06T03:47:02.809Z,10.80
2022-10-06T03:49:31.197Z,11.00
2022-10-06T03:51:58.082Z,10.90
2022-10-06T03:54:29.910Z,10.90
2022-10-06T03:56:57.130Z,10.90
2022-10-06T03:59:24.273Z,11.00
2022-10-06T04:01:52.969Z,11.00
2022-10-06T04:04:25.058Z,10.90
2022-10-06T04:06:57.930Z,11.00
2022-10-06T04:09:24.707Z,11.00
2022-10-06T04:11:52.549Z,11.00
2022-10-06T04:14:20.396Z,11.10
2022-10-06T04:16:48.679Z,11.40
2022-10-06T04:19:20.366Z,11.20
2022-10-06T04:21:52.831Z,11.40
2022-10-06T04:24:23.051Z,11.30
2022-10-06T04:26:50.200Z,11.20
2022-10-06T04:29:18.497Z,11.60
2022-10-06T04:31:50.458Z,12.00
2022-10-06T04:34:37.729Z,11.80
2022-10-06T04:37:04.649Z,11.20
2022-10-06T04:39:32.183Z,11.30
2022-10-06T04:41:59.350Z,11.30
2022-10-06T04:44:29.295Z,11.40
2022-10-06T04:47:00.528Z,11.40
2022-10-06T04:49:27.645Z,11.40
2022-10-06T04:51:56.233Z,11.50
2022-10-06T04:54:23.459Z,11.50
2022-10-06T04:56:54.927Z,11.50
2022-10-06T04:59:44.033Z,11.60
2022-10-06T05:02:12.714Z,11.60
2022-10-06T05:04:41.136Z,11.70
2022-10-06T05:07:08.211Z,11.70
2022-10-06T05:09:35.044Z,11.70
2022-10-06T05:12:02.844Z,11.70
2022-10-06T05:14:33.109Z,13.40
2022-10-06T05:17:00.882Z,11.80
2022-10-06T05:19:29.378Z,11.90
2022-10-06T05:21:56.716Z,11.90
2022-10-06T05:24:26.595Z,11.90
2022-10-06T05:26:54.823Z,11.90
2022-10-06T05:29:24.207Z,11.90
2022-10-06T05:31:51.673Z,11.80
2022-10-06T05:34:18.546Z,11.80
2022-10-06T05:36:46.577Z,11.80
2022-10-06T05:39:13.626Z,11.80
2022-10-06T05:41:48.203Z,11.80
2022-10-06T05:44:15.015Z,11.80
2022-10-06T05:46:46.690Z,11.80
2022-10-06T05:49:13.845Z,12.60
2022-10-06T05:51:45.912Z,11.80
2022-10-06T05:54:23.342Z,11.80
2022-10-06T05:56:50.248Z,11.80
2022-10-06T05:59:17.126Z,11.90
2022-10-06T06:01:44.683Z,11.90
2022-10-06T06:04:20.371Z,12.20
2022-10-06T06:06:51.169Z,12.00
2022-10-06T06:09:21.478Z,12.20
2022-10-06T06:11:51.164Z,12.10
2022-10-06T06:14:40.523Z,12.10
2022-10-06T06:17:08.175Z,12.20
2022-10-06T06:19:35.049Z,12.30
2022-10-06T06:22:02.019Z,12.40
2022-10-06T06:24:31.150Z,12.30
2022-10-06T06:26:58.323Z,12.60
2022-10-06T06:29:25.175Z,12.50
2022-10-06T08:04:00.115Z,15.00
2022-10-06T08:06:26.965Z,15.20
2022-10-06T08:08:55.102Z,15.60
2022-10-06T08:11:22.798Z,15.40
2022-10-06T08:13:51.830Z,15.40
2022-10-06T08:16:20.755Z,15.40
2022-10-06T08:18:54.391Z,15.40
2022-10-06T08:21:23.086Z,15.40
2022-10-06T08:23:50.839Z,15.50
2022-10-06T08:26:19.821Z,15.50
2022-10-06T08:28:48.359Z,15.50
2022-10-06T08:31:15.966Z,15.70
2022-10-06T08:33:43.417Z,16.00
2022-10-06T08:36:20.670Z,16.30
2022-10-06T08:38:50.002Z,15.80
2022-10-06T08:41:32.087Z,15.90
2022-10-06T08:44:19.658Z,15.80
2022-10-06T08:47:25.044Z,15.80
2022-10-06T08:49:52.928Z,15.80
2022-10-06T08:52:36.792Z,15.80
2022-10-06T08:55:06.822Z,15.80
2022-10-06T08:57:42.730Z,15.00
2022-10-06T09:00:14.249Z,15.80
2022-10-06T09:02:46.997Z,15.80
2022-10-06T09:05:23.214Z,15.90
2022-10-06T09:08:20.571Z,15.90
2022-10-06T09:11:15.044Z,16.00
2022-10-06T09:13:53.281Z,16.10
2022-10-06T09:16:28.082Z,16.10
2022-10-06T09:19:09.334Z,16.20
2022-10-06T09:21:48.263Z,16.20
2022-10-06T09:24:35.091Z,16.30
2022-10-06T09:27:01.939Z,16.30
2022-10-06T09:29:31.297Z,16.30
2022-10-06T09:31:58.196Z,16.40
2022-10-06T09:34:45.705Z,16.40
2022-10-06T09:37:13.764Z,16.40
2022-10-06T09:39:42.512Z,16.70
2022-10-06T09:42:21.378Z,16.50
2022-10-06T09:44:51.528Z,16.60
2022-10-06T09:47:33.263Z,16.60
2022-10-06T09:50:20.363Z,16.60
2022-10-06T09:53:03.482Z,16.60
2022-10-06T09:55:40.385Z,16.70
2022-10-06T09:58:23.705Z,16.70
2022-10-06T10:01:01.428Z,16.70
2022-10-06T10:03:44.571Z,16.70
2022-10-06T10:06:22.893Z,16.80
2022-10-06T10:08:49.843Z,16.80
2022-10-06T10:11:40.374Z,16.80
2022-10-06T10:14:17.783Z,16.80
2022-10-06T10:16:44.688Z,16.90
2022-10-06T10:19:24.879Z,15.40
2022-10-06T10:21:55.262Z,17.00
2022-10-06T10:24:57.275Z,17.00
2022-10-06T10:27:45.781Z,17.10
2022-10-06T10:30:14.720Z,17.30
2022-10-06T10:33:02.743Z,17.40
2022-10-06T10:35:32.004Z,17.50
2022-10-06T10:38:03.778Z,17.50
2022-10-06T10:40:43.119Z,17.50
2022-10-06T10:43:26.640Z,17.50
2022-10-06T10:46:01.218Z,17.60
2022-10-06T10:48:51.557Z,17.50
2022-10-06T10:51:23.424Z,17.60
2022-10-06T10:53:52.467Z,17.60
2022-10-06T10:56:21.466Z,17.70
2022-10-06T10:58:50.289Z,17.70
2022-10-06T11:01:31.531Z,17.80
2022-10-06T11:03:58.544Z,17.90
2022-10-06T11:06:31.737Z,18.00
2022-10-06T11:09:29.444Z,18.00
2022-10-06T11:12:22.033Z,18.10
2022-10-06T11:15:03.491Z,18.20
2022-10-06T11:17:40.239Z,18.20
2022-10-06T11:20:21.897Z,18.20
2022-10-06T11:23:24.146Z,18.10
2022-10-06T11:26:20.069Z,18.10
2022-10-06T11:28:59.022Z,18.10
2022-10-06T11:31:47.972Z,18.10
2022-10-06T11:34:14.962Z,18.00
2022-10-06T11:37:17.945Z,18.00
2022-10-06T11:39:56.730Z,18.00
2022-10-06T11:43:19.791Z,18.00
2022-10-06T11:46:00.066Z,18.00
2022-10-06T11:48:30.692Z,18.00
2022-10-06T11:51:26.211Z,18.00
2022-10-06T11:53:53.094Z,18.00
2022-10-06T11:56:19.938Z,18.00
2022-10-06T11:58:55.827Z,17.90
2022-10-06T12:01:31.709Z,17.90
2022-10-06T12:04:08.413Z,17.90
2022-10-06T12:06:47.426Z,17.90
2022-10-06T12:09:31.160Z,18.00
2022-10-06T12:12:27.215Z,17.90
2022-10-06T12:18:37.698Z,18.10
2022-10-06T12:21:34.082Z,18.10
2022-10-06T12:24:05.645Z,18.00
2022-10-06T12:31:13.424Z,18.00
2022-10-06T12:33:43.194Z,18.10
2022-10-06T12:36:24.139Z,18.10
2022-10-06T12:39:22.837Z,18.10
2022-10-06T12:41:58.883Z,18.20
2022-10-06T12:44:25.844Z,18.20
2022-10-06T12:46:53.023Z,18.20
2022-10-06T12:49:25.371Z,18.30
2022-10-06T12:51:54.567Z,18.30
2022-10-06T12:54:36.046Z,19.10
2022-10-06T12:57:20.153Z,19.00
2022-10-06T12:59:47.380Z,18.30
2022-10-06T13:02:25.550Z,18.30
2022-10-06T13:05:02.886Z,18.30
2022-10-06T13:07:31.441Z,18.30
2022-10-06T13:10:18.554Z,18.30
2022-10-06T13:12:47.266Z,18.30
2022-10-06T13:15:25.046Z,18.30
2022-10-06T13:18:11.009Z,18.30
2022-10-06T13:20:46.612Z,18.20
2022-10-06T13:23:32.985Z,18.30
2022-10-06T13:26:00.654Z,18.30
2022-10-06T13:28:30.438Z,18.30
2022-10-06T13:30:58.793Z,18.30
2022-10-06T13:33:37.249Z,18.30
2022-10-06T13:36:04.305Z,18.30
2022-10-06T13:38:35.051Z,18.30
2022-10-06T13:41:20.978Z,18.30
2022-10-06T13:43:52.808Z,18.30
2022-10-06T13:46:22.067Z,18.30
2022-10-06T13:48:53.990Z,18.30
2022-10-06T13:51:25.813Z,18.30
2022-10-06T13:53:52.786Z,18.20
2022-10-06T13:59:30.021Z,18.20
2022-10-06T14:02:18.603Z,18.20
2022-10-06T14:05:04.796Z,18.20
2022-10-06T14:07:31.770Z,18.20
2022-10-06T14:09:58.659Z,18.20
2022-10-06T14:12:25.768Z,18.20
2022-10-06T14:14:53.102Z,18.20
2022-10-06T14:17:27.834Z,18.20
2022-10-06T14:19:54.791Z,18.10
2022-10-06T14:22:32.583Z,18.10
2022-10-06T14:24:59.516Z,18.10
2022-10-06T14:27:26.401Z,18.10
2022-10-06T14:29:53.327Z,18.10
2022-10-06T14:32:20.487Z,18.10
2022-10-06T14:34:47.406Z,18.20
2022-10-06T14:37:17.009Z,18.20
2022-10-06T14:39:44.937Z,18.20
2022-10-06T14:42:12.674Z,18.20
2022-10-06T14:44:39.727Z,18.10
2022-10-06T14:47:09.427Z,18.10
2022-10-06T14:49:37.821Z,18.10
2022-10-06T14:52:05.593Z,18.00
2022-10-06T14:54:34.447Z,18.00
2022-10-06T14:57:01.320Z,17.90
2022-10-06T14:59:28.612Z,17.90
2022-10-06T15:01:55.574Z,17.90
2022-10-06T15:04:25.000Z,17.80
2022-10-06T15:07:10.677Z,17.80
2022-10-06T15:09:37.576Z,17.80
2022-10-06T15:12:04.497Z,17.80
2022-10-06T15:14:32.037Z,17.80
2022-10-06T15:17:02.244Z,17.70
2022-10-06T15:19:29.087Z,17.70
2022-10-06T15:21:56.275Z,17.70
2022-10-06T15:24:23.088Z,17.60
2022-10-06T15:27:08.765Z,17.60
2022-10-06T15:29:35.721Z,17.60
2022-10-06T15:32:03.590Z,17.50
2022-10-06T15:34:32.007Z,17.50
2022-10-06T15:36:59.032Z,17.40
2022-10-06T15:39:28.195Z,17.40
2022-10-06T15:41:55.275Z,17.40
2022-10-06T15:44:22.136Z,17.30
2022-10-06T15:46:50.716Z,17.20
2022-10-06T15:49:19.887Z,17.20
2022-10-06T15:51:54.481Z,17.10
2022-10-06T15:54:23.716Z,17.00
2022-10-06T15:56:52.090Z,17.00
2022-10-06T15:59:24.091Z,16.90
2022-10-06T16:01:59.961Z,16.90
2022-10-06T16:04:28.529Z,16.80
2022-10-06T16:06:56.188Z,16.80
2022-10-06T16:09:44.194Z,16.70
2022-10-06T16:12:12.633Z,16.60
2022-10-06T16:14:39.577Z,16.60
2022-10-06T16:17:06.768Z,16.60
2022-10-06T16:19:33.839Z,16.50
2022-10-06T16:22:00.891Z,16.40
2022-10-06T16:24:27.884Z,16.40
2022-10-06T16:26:56.352Z,16.30
2022-10-06T16:29:23.923Z,16.20
2022-10-06T16:31:51.026Z,16.20
2022-10-06T16:34:18.528Z,16.10
2022-10-06T16:36:45.436Z,15.90
2022-10-06T16:39:20.243Z,15.80
2022-10-06T16:41:47.267Z,15.70
2022-10-06T16:44:14.127Z,15.50
2022-10-06T16:46:41.442Z,15.30
2022-10-06T16:49:09.254Z,15.20
2022-10-06T16:51:40.369Z,15.10
2022-10-06T16:54:08.895Z,14.90
2022-10-06T16:56:37.417Z,14.80
2022-10-06T16:59:14.926Z,14.70
2022-10-06T17:01:41.863Z,14.60
2022-10-06T17:04:16.997Z,14.60
2022-10-06T17:06:48.473Z,14.40
2022-10-06T17:09:16.648Z,14.20
2022-10-06T17:11:45.036Z,14.20
2022-10-06T17:14:12.109Z,14.10
2022-10-06T17:16:40.554Z,14.00
2022-10-06T17:19:07.470Z,14.00
2022-10-06T17:21:54.065Z,13.90
2022-10-06T17:24:22.604Z,13.90
2022-10-06T17:26:49.619Z,13.80
2022-10-06T17:29:19.032Z,13.80
2022-10-06T17:31:46.323Z,13.70
2022-10-06T17:34:19.550Z,13.60
2022-10-06T17:36:48.445Z,13.60
2022-10-06T17:39:24.837Z,13.50
2022-10-06T17:41:52.842Z,13.40
2022-10-06T17:44:22.760Z,13.40
2022-10-06T17:46:51.937Z,13.40
2022-10-06T17:49:23.894Z,13.40
2022-10-06T17:51:51.563Z,13.30
2022-10-06T17:54:20.692Z,13.30
2022-10-06T17:56:48.819Z,13.30
2022-10-06T17:59:21.673Z,13.20
2022-10-06T18:01:48.690Z,13.30
2022-10-06T18:04:16.193Z,13.30
2022-10-06T18:06:43.692Z,13.30
2022-10-06T18:09:10.543Z,13.30
2022-10-06T18:11:43.330Z,13.20
2022-10-06T18:14:16.943Z,13.20
2022-10-06T18:16:55.092Z,13.20
2022-10-06T18:19:28.564Z,13.20
2022-10-06T18:22:00.265Z,13.30
2022-10-06T18:24:28.202Z,13.20
2022-10-06T18:26:56.227Z,13.20
2022-10-06T18:29:24.745Z,13.20
2022-10-06T18:31:54.758Z,13.30
2022-10-06T18:37:11.455Z,14.00
2022-10-06T18:39:38.366Z,13.30
2022-10-06T18:42:05.771Z,13.30
2022-10-06T18:44:51.971Z,13.30
2022-10-06T18:47:37.410Z,13.40
2022-10-06T18:50:04.963Z,13.40
2022-10-06T18:52:32.118Z,13.40
2022-10-06T18:54:59.014Z,13.40
2022-10-06T18:57:28.504Z,13.40
2022-10-06T18:59:55.525Z,13.40
2022-10-06T19:02:23.041Z,13.40
2022-10-06T19:04:50.223Z,13.40
2022-10-06T19:07:17.053Z,13.50
2022-10-06T19:09:46.496Z,13.40
2022-10-06T19:12:13.867Z,13.40
2022-10-06T19:14:47.176Z,13.30
2022-10-06T19:17:14.912Z,13.30
2022-10-06T19:19:42.969Z,13.20
2022-10-06T19:22:11.177Z,13.20
2022-10-06T19:24:39.602Z,13.20
2022-10-06T19:27:13.666Z,13.10
2022-10-06T19:29:44.122Z,13.10
2022-10-06T19:32:11.188Z,13.10
2022-10-06T19:34:38.324Z,13.10
2022-10-06T19:37:05.762Z,13.10
2022-10-06T19:39:35.731Z,13.10
2022-10-06T19:42:21.204Z,13.10
2022-10-06T19:44:48.056Z,13.10
2022-10-06T19:47:14.996Z,13.10
2022-10-06T19:49:42.158Z,13.10
2022-10-06T19:52:09.778Z,13.10
2022-10-06T19:54:36.753Z,13.10
2022-10-06T19:57:05.686Z,13.10
2022-10-06T19:59:33.004Z,13.10
2022-10-06T20:02:00.883Z,13.20
2022-10-06T20:04:27.823Z,13.10
2022-10-06T20:06:54.744Z,13.10
2022-10-06T20:09:22.680Z,13.10
2022-10-06T20:11:50.352Z,13.10
2022-10-06T20:14:21.032Z,13.30
2022-10-06T20:16:50.961Z,13.20
2022-10-06T20:19:18.532Z,13.20
2022-10-06T20:21:45.492Z,13.10
2022-10-06T20:24:18.061Z,13.10
2022-10-06T20:26:46.324Z,13.10
2022-10-06T20:29:13.929Z,13.20
2022-10-06T20:31:48.339Z,13.20
2022-10-06T20:34:17.104Z,13.20
2022-10-06T20:36:44.051Z,13.50
2022-10-06T20:39:34.735Z,13.20
2022-10-06T20:42:01.599Z,13.20
2022-10-06T20:44:28.432Z,13.20
2022-10-06T20:46:55.369Z,13.20
2022-10-06T20:49:22.275Z,13.20
2022-10-06T20:51:52.478Z,13.20
2022-10-06T20:54:20.853Z,13.20
2022-10-06T20:56:52.074Z,13.20
2022-10-06T20:59:19.659Z,13.20
2022-10-06T21:01:46.953Z,13.20
2022-10-06T21:04:15.176Z,13.30
2022-10-06T21:06:42.084Z,13.30
2022-10-06T21:09:12.435Z,13.30
2022-10-06T21:11:39.403Z,13.30
2022-10-06T21:14:10.559Z,13.30
2022-10-06T21:16:42.593Z,13.30
2022-10-06T21:19:12.217Z,13.30
2022-10-06T21:21:40.122Z,13.30
2022-10-06T21:24:08.459Z,13.30
2022-10-06T21:26:35.493Z,13.30
2022-10-06T21:29:02.469Z,13.30
2022-10-06T21:31:29.486Z,13.30
2022-10-06T21:33:56.515Z,13.30
2022-10-06T21:36:24.888Z,13.30
2022-10-06T21:38:55.789Z,13.30
2022-10-06T21:41:31.996Z,13.30
2022-10-06T21:44:02.979Z,13.30
2022-10-06T21:46:53.884Z,13.30
2022-10-06T21:49:22.167Z,13.30
2022-10-06T21:51:51.166Z,13.30
2022-10-06T21:54:18.469Z,13.30
2022-10-06T21:56:45.603Z,13.30
2022-10-06T21:59:12.768Z,13.30
2022-10-06T22:01:44.255Z,13.30
2022-10-06T22:04:12.892Z,13.30
2022-10-06T22:06:39.937Z,13.30
2022-10-06T22:09:07.914Z,13.30
2022-10-06T22:11:36.473Z,13.30
2022-10-06T22:14:05.927Z,13.30
2022-10-06T22:16:34.144Z,13.30
2022-10-06T22:19:02.290Z,13.60
2022-10-06T22:21:33.757Z,13.30
2022-10-06T22:24:02.233Z,13.30
2022-10-06T22:26:29.995Z,13.30
2022-10-06T22:28:57.543Z,13.30
2022-10-06T22:31:26.334Z,13.30
2022-10-06T22:34:01.586Z,13.30
2022-10-06T22:36:28.788Z,13.30
2022-10-06T22:38:55.976Z,13.30
2022-10-06T22:41:23.095Z,13.30
2022-10-06T22:43:52.299Z,13.30
2022-10-06T22:46:19.346Z,13.30
2022-10-06T22:48:46.301Z,13.30
2022-10-06T22:51:13.467Z,13.20
2022-10-06T22:53:40.384Z,13.20
2022-10-06T22:56:07.461Z,13.20
2022-10-06T22:58:34.512Z,13.30
2022-10-06T23:01:15.158Z,13.30
2022-10-06T23:03:42.280Z,13.30
2022-10-06T23:06:10.676Z,13.30
2022-10-06T23:08:37.661Z,13.30
2022-10-06T23:11:09.788Z,13.30
2022-10-06T23:13:36.931Z,13.30
2022-10-06T23:16:08.716Z,13.30
2022-10-06T23:18:37.374Z,13.30
2022-10-06T23:21:08.673Z,13.30
2022-10-06T23:23:35.822Z,13.30
2022-10-06T23:26:07.470Z,13.30
2022-10-06T23:28:34.571Z,13.30
2022-10-06T23:31:01.536Z,13.30
2022-10-06T23:33:31.750Z,13.30
2022-10-06T23:35:59.526Z,13.20
2022-10-06T23:38:26.623Z,13.20
2022-10-06T23:40:53.734Z,13.20
2022-10-06T23:43:20.961Z,13.20
2022-10-06T23:45:47.955Z,13.20
2022-10-06T23:48:15.202Z,13.20
2022-10-06T23:50:42.225Z,13.20
2022-10-06T23:53:09.302Z,13.10
2022-10-06T23:55:36.322Z,13.00
2022-10-06T23:58:03.260Z,13.10
